Saint James, Missouri
Current Conditions -  °F | °C
As of 11:53 PM on Sunday 25 Jan 2015 (Local Time) from KVIH Reporting Station
Overcast Overcast  
Wind Chill: 20°   Ceiling: 1100
Heat Index: 30°   Visibility: 10mi
Dew Point: 27°   Wind: 13mph
Humidity: 88%   Direction: 320°NW
Pressure: 30.03"   Gusts: NA
Location:  38°N, 91.61°W
Report Text: KVIH 260553Z AUTO 32011KT 10SM OVC011 M01/M03 A3003 RMK AO2 CIG 007V013 SLP176 60000 T10111028 10006 21011 400941011 51009
Loading
Personal Weather Stations






























Interactive Weather Map New forecast layout! Learn more

10-Day Weather Forecast

Advertisements
Track Severe Weather on mobile